createdAt,value
2019-03-29T00:00:29.118Z,22.40
2019-03-29T00:02:55.835Z,22.30
2019-03-29T00:05:22.721Z,22.30
2019-03-29T00:07:49.452Z,22.30
2019-03-29T00:10:16.166Z,22.30
2019-03-29T00:12:43.055Z,22.30
2019-03-29T00:15:09.784Z,22.30
2019-03-29T00:17:36.529Z,22.30
2019-03-29T00:20:06.001Z,22.20
2019-03-29T00:22:31.664Z,22.20
2019-03-29T00:24:58.384Z,22.20
2019-03-29T00:27:25.171Z,22.20
2019-03-29T00:29:51.901Z,22.20
2019-03-29T00:32:18.608Z,22.30
2019-03-29T00:34:45.390Z,22.30
2019-03-29T00:37:12.097Z,22.20
2019-03-29T00:39:38.801Z,22.20
2019-03-29T00:42:05.625Z,22.30
2019-03-29T00:44:32.321Z,22.30
2019-03-29T00:46:59.070Z,22.30
2019-03-29T00:49:25.868Z,22.30
2019-03-29T00:51:52.589Z,22.40
2019-03-29T00:54:19.316Z,22.40
2019-03-29T00:56:46.081Z,22.40
2019-03-29T00:59:12.785Z,22.50
2019-03-29T01:01:39.478Z,22.50
2019-03-29T01:04:06.280Z,22.40
2019-03-29T01:06:33.022Z,22.40
2019-03-29T01:08:59.806Z,22.30
2019-03-29T01:11:26.877Z,22.40
2019-03-29T01:13:53.623Z,22.30
2019-03-29T01:16:20.330Z,22.30
2019-03-29T01:18:47.144Z,22.30
2019-03-29T01:21:14.063Z,22.30
2019-03-29T01:23:40.797Z,22.20
2019-03-29T01:26:07.593Z,22.10
2019-03-29T01:28:34.338Z,22.10
2019-03-29T01:31:01.070Z,22.10
2019-03-29T01:33:27.868Z,22.00
2019-03-29T01:35:54.589Z,22.00
2019-03-29T01:38:23.985Z,21.90
2019-03-29T01:40:49.715Z,22.00
2019-03-29T01:43:16.476Z,21.90
2019-03-29T01:45:43.188Z,21.90
2019-03-29T01:48:09.972Z,21.90
2019-03-29T01:50:36.717Z,21.90
2019-03-29T01:53:03.525Z,21.90
2019-03-29T01:55:30.350Z,21.80
2019-03-29T01:57:57.087Z,21.60
2019-03-29T02:00:23.832Z,21.40
2019-03-29T02:02:50.637Z,21.40
2019-03-29T02:05:17.340Z,21.30
2019-03-29T02:07:44.045Z,21.30
2019-03-29T02:10:10.813Z,21.30
2019-03-29T02:12:37.557Z,21.30
2019-03-29T02:15:04.248Z,21.30
2019-03-29T02:17:30.969Z,21.40
2019-03-29T02:19:58.136Z,21.40
2019-03-29T02:22:24.889Z,21.50
2019-03-29T02:24:51.676Z,21.60
2019-03-29T02:27:18.382Z,21.70
2019-03-29T02:29:45.096Z,21.70
2019-03-29T02:32:11.940Z,21.80
2019-03-29T02:34:38.639Z,21.90
2019-03-29T02:37:05.332Z,21.90
2019-03-29T02:39:32.084Z,21.90
2019-03-29T02:41:58.835Z,22.00
2019-03-29T02:44:25.544Z,22.00
2019-03-29T02:46:53.581Z,22.00
2019-03-29T02:49:20.858Z,22.00
2019-03-29T02:51:47.630Z,22.10
2019-03-29T02:54:14.476Z,22.10
2019-03-29T02:56:41.245Z,22.10
2019-03-29T02:59:08.004Z,22.10
2019-03-29T03:01:34.771Z,22.20
2019-03-29T03:04:01.464Z,22.10
2019-03-29T03:06:28.201Z,22.20
2019-03-29T03:09:11.776Z,22.20
2019-03-29T03:11:23.302Z,22.20
2019-03-29T03:13:50.042Z,22.20
2019-03-29T03:16:16.859Z,22.20
2019-03-29T03:18:43.579Z,22.30
2019-03-29T03:21:10.297Z,22.30
2019-03-29T03:23:37.061Z,22.40
2019-03-29T03:26:03.802Z,22.40
2019-03-29T03:28:30.524Z,22.40
2019-03-29T03:30:57.280Z,22.40
2019-03-29T03:33:23.992Z,22.30
2019-03-29T03:35:50.698Z,22.20
2019-03-29T03:38:17.472Z,21.80
2019-03-29T03:40:44.221Z,21.60
2019-03-29T03:43:10.903Z,21.60
2019-03-29T03:45:37.684Z,21.70
2019-03-29T03:48:04.388Z,21.60
2019-03-29T03:50:31.081Z,21.60
2019-03-29T03:52:57.879Z,21.40
2019-03-29T03:55:24.613Z,21.40
2019-03-29T03:57:51.323Z,21.50
2019-03-29T04:00:18.090Z,21.60
2019-03-29T04:02:44.833Z,21.70
2019-03-29T04:05:11.554Z,21.80
2019-03-29T04:07:38.327Z,21.90
2019-03-29T04:10:05.054Z,21.50
2019-03-29T04:12:31.792Z,21.50
2019-03-29T04:14:58.703Z,21.50
2019-03-29T04:17:25.412Z,21.50
2019-03-29T04:19:52.132Z,21.30
2019-03-29T04:22:18.893Z,21.50
2019-03-29T04:24:45.631Z,21.60
2019-03-29T04:27:12.386Z,21.60
2019-03-29T04:29:39.122Z,21.60
2019-03-29T04:32:05.870Z,21.70
2019-03-29T04:34:32.572Z,21.80
2019-03-29T04:36:59.797Z,21.90
2019-03-29T04:39:26.505Z,22.00
2019-03-29T04:41:53.212Z,22.10
2019-03-29T04:44:20.010Z,22.10
2019-03-29T04:46:46.752Z,22.10
2019-03-29T04:49:13.495Z,22.10
2019-03-29T04:51:40.316Z,22.20
2019-03-29T04:54:07.042Z,22.30
2019-03-29T04:56:33.754Z,22.40
2019-03-29T04:59:00.515Z,22.40
2019-03-29T05:01:27.234Z,22.40
2019-03-29T05:03:53.932Z,22.40
2019-03-29T05:06:21.120Z,22.40
2019-03-29T05:08:47.857Z,22.40
2019-03-29T05:11:14.570Z,22.40
2019-03-29T05:13:41.352Z,22.40
2019-03-29T05:16:08.057Z,22.40
2019-03-29T05:18:34.756Z,22.50
2019-03-29T05:21:01.549Z,22.50
2019-03-29T05:23:28.282Z,22.50
2019-03-29T05:25:55.014Z,22.60
2019-03-29T05:28:21.773Z,22.60
2019-03-29T05:30:48.521Z,22.60
2019-03-29T05:33:15.227Z,22.60
2019-03-29T05:35:41.987Z,22.60
2019-03-29T05:38:08.648Z,22.70
2019-03-29T05:40:35.513Z,22.80
2019-03-29T05:43:02.335Z,22.70
2019-03-29T05:45:29.035Z,22.90
2019-03-29T05:47:55.751Z,22.90
2019-03-29T05:50:22.517Z,22.80
2019-03-29T05:52:49.263Z,22.90
2019-03-29T05:55:16.201Z,23.00
2019-03-29T05:57:42.956Z,23.00
2019-03-29T06:00:09.698Z,23.00
2019-03-29T06:02:36.419Z,23.20
2019-03-29T06:05:03.217Z,23.20
2019-03-29T06:07:29.921Z,23.30
2019-03-29T06:09:56.603Z,23.40
2019-03-29T06:12:23.321Z,23.50
2019-03-29T06:14:50.010Z,23.60
2019-03-29T06:17:16.658Z,23.70
2019-03-29T06:19:43.442Z,23.70
2019-03-29T06:22:10.141Z,23.70
2019-03-29T06:24:36.879Z,23.70
2019-03-29T06:27:03.654Z,23.60
2019-03-29T06:29:30.360Z,23.10
2019-03-29T06:31:57.076Z,23.10
2019-03-29T06:34:23.891Z,23.10
2019-03-29T06:36:50.623Z,22.90
2019-03-29T06:39:17.361Z,23.00
2019-03-29T06:41:44.150Z,23.00
2019-03-29T06:44:10.851Z,23.20
2019-03-29T06:46:37.485Z,23.00
2019-03-29T06:49:04.285Z,22.90
2019-03-29T06:51:31.025Z,23.10
2019-03-29T06:53:57.760Z,23.20
2019-03-29T06:56:24.519Z,23.30
2019-03-29T06:58:51.250Z,23.60
2019-03-29T07:01:17.951Z,23.80
2019-03-29T07:03:44.702Z,23.70
2019-03-29T07:06:11.405Z,23.90
2019-03-29T07:08:38.121Z,24.10
2019-03-29T07:11:16.761Z,24.10
2019-03-29T07:13:33.150Z,24.00
2019-03-29T07:15:59.846Z,24.30
2019-03-29T07:18:26.642Z,24.40
2019-03-29T07:20:53.361Z,24.60
2019-03-29T07:23:20.076Z,24.70
2019-03-29T07:25:46.840Z,24.80
2019-03-29T07:28:13.616Z,25.20
2019-03-29T07:30:40.330Z,25.30
2019-03-29T07:33:07.073Z,25.70
2019-03-29T07:35:33.809Z,26.10
2019-03-29T07:38:00.497Z,26.40
2019-03-29T07:40:27.554Z,26.90
2019-03-29T07:42:54.257Z,27.50
2019-03-29T07:45:20.954Z,27.90
2019-03-29T07:47:47.639Z,28.40
2019-03-29T07:50:14.368Z,28.70
2019-03-29T07:52:41.100Z,29.00
2019-03-29T07:55:07.864Z,29.10
2019-03-29T07:57:34.490Z,29.20
2019-03-29T08:00:01.258Z,29.30
2019-03-29T08:02:28.881Z,29.40
2019-03-29T08:04:55.729Z,29.60
2019-03-29T08:07:27.570Z,29.70
2019-03-29T08:09:51.116Z,29.90
2019-03-29T08:12:18.363Z,29.90
2019-03-29T08:14:45.258Z,30.20
2019-03-29T08:17:12.902Z,30.40
2019-03-29T08:19:39.794Z,30.50
2019-03-29T08:22:06.522Z,30.60
2019-03-29T08:24:33.283Z,30.70
2019-03-29T08:27:00.014Z,30.90
2019-03-29T08:29:26.761Z,30.80
2019-03-29T08:31:55.485Z,30.90
2019-03-29T08:34:22.072Z,31.00
2019-03-29T08:36:48.835Z,30.90
2019-03-29T08:39:27.315Z,30.70
2019-03-29T08:41:44.290Z,30.40
2019-03-29T08:44:11.953Z,30.30
2019-03-29T08:46:38.865Z,30.80
2019-03-29T08:49:05.749Z,31.50
2019-03-29T08:51:32.466Z,31.80
2019-03-29T08:53:59.213Z,32.10
2019-03-29T08:56:26.120Z,31.70
2019-03-29T08:58:52.972Z,31.40
2019-03-29T09:01:19.908Z,31.40
2019-03-29T09:04:00.223Z,31.80
2019-03-29T09:06:15.007Z,32.60
2019-03-29T09:08:41.959Z,33.50
2019-03-29T09:11:08.849Z,34.00
2019-03-29T09:13:35.518Z,34.80
2019-03-29T09:16:02.369Z,35.30
2019-03-29T09:18:29.022Z,36.00
2019-03-29T09:20:55.726Z,36.20
2019-03-29T09:23:22.429Z,36.40
2019-03-29T09:25:49.077Z,36.40
2019-03-29T09:28:15.812Z,36.30
2019-03-29T09:30:42.598Z,36.00
2019-03-29T09:33:09.336Z,35.60
2019-03-29T09:35:36.045Z,35.10
2019-03-29T09:38:02.857Z,34.50
2019-03-29T09:40:29.718Z,33.90
2019-03-29T09:43:07.105Z,33.60
2019-03-29T09:45:24.808Z,33.30
2019-03-29T09:47:51.516Z,33.10
2019-03-29T09:50:18.275Z,32.80
2019-03-29T09:52:45.047Z,32.70
2019-03-29T09:55:11.794Z,32.80
2019-03-29T09:57:38.500Z,32.90
2019-03-29T10:00:17.977Z,33.00
2019-03-29T10:02:33.634Z,32.90
2019-03-29T10:05:00.350Z,33.10
2019-03-29T10:07:27.129Z,33.10
2019-03-29T10:09:53.841Z,33.10
2019-03-29T10:12:20.527Z,33.10
2019-03-29T10:14:47.218Z,33.50
2019-03-29T10:17:13.936Z,34.10
2019-03-29T10:19:40.674Z,34.90
2019-03-29T10:22:07.448Z,35.30
2019-03-29T10:24:34.154Z,35.80
2019-03-29T10:27:00.889Z,36.00
2019-03-29T10:29:27.684Z,36.10
2019-03-29T10:31:54.383Z,35.90
2019-03-29T10:34:21.081Z,35.60
2019-03-29T10:36:47.803Z,35.00
2019-03-29T10:39:14.511Z,34.50
2019-03-29T10:41:41.219Z,34.30
2019-03-29T10:44:07.955Z,34.00
2019-03-29T10:46:34.653Z,33.70
2019-03-29T10:49:01.389Z,33.50
2019-03-29T10:51:28.162Z,33.30
2019-03-29T10:53:54.880Z,33.10
2019-03-29T10:56:33.452Z,32.90
2019-03-29T10:58:50.083Z,33.00
2019-03-29T11:01:16.828Z,33.30
2019-03-29T11:03:45.243Z,34.10
2019-03-29T11:06:12.336Z,35.10
2019-03-29T11:08:39.035Z,36.20
2019-03-29T11:11:05.775Z,37.30
2019-03-29T11:13:32.531Z,38.60
2019-03-29T11:15:59.194Z,39.20
2019-03-29T11:18:25.888Z,39.40
2019-03-29T11:20:52.649Z,39.90
2019-03-29T11:23:19.393Z,40.40
2019-03-29T11:25:48.606Z,41.00
2019-03-29T11:28:14.509Z,41.40
2019-03-29T11:30:42.747Z,41.80
2019-03-29T11:33:09.748Z,42.30
2019-03-29T11:35:36.597Z,42.80
2019-03-29T11:38:03.264Z,43.20
2019-03-29T11:40:30.010Z,43.40
2019-03-29T11:42:56.835Z,43.50
2019-03-29T11:45:23.560Z,43.70
2019-03-29T11:47:51.856Z,43.80
2019-03-29T11:50:18.866Z,43.80
2019-03-29T11:52:45.555Z,43.70
2019-03-29T11:55:12.302Z,43.70
2019-03-29T11:57:39.088Z,43.70
2019-03-29T12:00:05.801Z,43.30
2019-03-29T12:02:32.510Z,42.90
2019-03-29T12:04:59.274Z,42.30
2019-03-29T12:07:25.940Z,42.00
2019-03-29T12:09:52.652Z,41.70
2019-03-29T12:12:19.408Z,41.70
2019-03-29T12:14:46.046Z,41.80
2019-03-29T12:17:12.849Z,41.70
2019-03-29T12:19:39.582Z,40.80
2019-03-29T12:22:06.278Z,40.80
2019-03-29T12:24:32.989Z,40.80
2019-03-29T12:26:59.771Z,40.60
2019-03-29T12:29:26.500Z,39.70
2019-03-29T12:31:53.202Z,39.50
2019-03-29T12:34:19.966Z,38.10
2019-03-29T12:36:46.713Z,38.10
2019-03-29T12:39:13.443Z,37.80
2019-03-29T12:41:40.244Z,38.20
2019-03-29T12:44:06.957Z,38.30
2019-03-29T12:46:33.617Z,38.60
2019-03-29T12:49:00.414Z,38.80
2019-03-29T12:51:27.102Z,39.10
2019-03-29T12:53:53.841Z,39.40
2019-03-29T12:56:20.640Z,39.20
2019-03-29T12:58:47.365Z,39.30
2019-03-29T13:01:14.093Z,39.40
2019-03-29T13:03:40.890Z,39.70
2019-03-29T13:06:07.584Z,40.00
2019-03-29T13:08:34.214Z,40.40
2019-03-29T13:11:01.068Z,40.50
2019-03-29T13:13:27.770Z,41.00
2019-03-29T13:15:54.553Z,41.00
2019-03-29T13:18:21.312Z,41.20
2019-03-29T13:20:48.019Z,41.30
2019-03-29T13:23:14.795Z,41.60
2019-03-29T13:25:41.517Z,41.70
2019-03-29T13:28:08.259Z,41.40
2019-03-29T13:30:34.981Z,41.10
2019-03-29T13:33:01.776Z,41.40
2019-03-29T13:35:28.509Z,41.60
2019-03-29T13:37:55.240Z,41.60
2019-03-29T13:40:22.019Z,41.80
2019-03-29T13:42:48.712Z,41.60
2019-03-29T13:45:15.427Z,41.40
2019-03-29T13:47:42.231Z,41.00
2019-03-29T13:50:08.925Z,40.50
2019-03-29T13:52:35.660Z,40.50
2019-03-29T13:55:02.442Z,39.80
2019-03-29T13:57:29.490Z,39.70
2019-03-29T13:59:56.970Z,38.60
2019-03-29T14:02:23.693Z,37.80
2019-03-29T14:04:50.435Z,37.80
2019-03-29T14:07:17.136Z,37.80
2019-03-29T14:09:43.963Z,37.70
2019-03-29T14:12:10.691Z,37.80
2019-03-29T14:14:38.699Z,38.00
2019-03-29T14:17:05.619Z,38.20
2019-03-29T14:19:32.315Z,38.40
2019-03-29T14:21:59.151Z,38.50
2019-03-29T14:24:25.898Z,38.60
2019-03-29T14:26:52.611Z,38.70
2019-03-29T14:29:19.383Z,38.50
2019-03-29T14:31:46.165Z,38.50
2019-03-29T14:34:12.909Z,38.40
2019-03-29T14:36:39.825Z,38.10
2019-03-29T14:39:06.568Z,38.10
2019-03-29T14:41:33.279Z,38.10
2019-03-29T14:43:59.994Z,38.20
2019-03-29T14:46:26.795Z,38.00
2019-03-29T14:48:53.539Z,37.70
2019-03-29T14:51:20.253Z,37.60
2019-03-29T14:53:47.029Z,37.40
2019-03-29T14:56:13.769Z,37.40
2019-03-29T14:58:40.507Z,37.00
2019-03-29T15:01:07.715Z,36.50
2019-03-29T15:03:34.902Z,35.70
2019-03-29T15:06:01.944Z,35.70
2019-03-29T15:08:28.839Z,35.40
2019-03-29T15:10:55.606Z,35.50
2019-03-29T15:13:22.302Z,35.60
2019-03-29T15:15:49.008Z,35.70
2019-03-29T15:18:15.751Z,35.50
2019-03-29T15:20:53.313Z,35.50
2019-03-29T15:23:11.448Z,35.50
2019-03-29T15:25:40.573Z,35.50
2019-03-29T15:28:06.488Z,35.30
2019-03-29T15:30:33.223Z,35.00
2019-03-29T15:32:59.928Z,34.80
2019-03-29T15:35:26.712Z,34.70
2019-03-29T15:37:53.479Z,34.40
2019-03-29T15:40:20.185Z,34.20
2019-03-29T15:42:46.898Z,34.10
2019-03-29T15:45:20.182Z,33.80
2019-03-29T15:47:42.056Z,33.50
2019-03-29T15:50:08.763Z,33.20
2019-03-29T15:52:35.552Z,32.90
2019-03-29T15:55:02.254Z,32.60
2019-03-29T15:57:29.006Z,32.40
2019-03-29T15:59:55.783Z,32.20
2019-03-29T16:02:22.514Z,31.80
2019-03-29T16:04:49.240Z,31.70
2019-03-29T16:07:16.030Z,31.50
2019-03-29T16:09:42.722Z,31.40
2019-03-29T16:12:09.501Z,31.20
2019-03-29T16:14:36.247Z,31.10
2019-03-29T16:17:02.974Z,30.90
2019-03-29T16:19:29.664Z,30.80
2019-03-29T16:21:56.497Z,30.60
2019-03-29T16:24:23.179Z,30.50
2019-03-29T16:26:49.802Z,30.30
2019-03-29T16:29:16.620Z,30.30
2019-03-29T16:31:43.332Z,30.20
2019-03-29T16:34:10.049Z,30.10
2019-03-29T16:36:36.815Z,30.10
2019-03-29T16:39:03.508Z,30.00
2019-03-29T16:41:30.207Z,30.00
2019-03-29T16:43:56.888Z,30.00
2019-03-29T16:46:23.622Z,29.90
2019-03-29T16:48:50.354Z,29.90
2019-03-29T16:51:17.142Z,29.80
2019-03-29T16:53:43.878Z,29.80
2019-03-29T16:56:12.044Z,29.70
2019-03-29T16:58:39.060Z,29.70
2019-03-29T17:01:05.789Z,29.50
2019-03-29T17:03:32.535Z,29.50
2019-03-29T17:05:59.284Z,29.40
2019-03-29T17:08:25.952Z,29.20
2019-03-29T17:10:52.757Z,29.20
2019-03-29T17:13:19.588Z,29.10
2019-03-29T17:15:46.462Z,29.10
2019-03-29T17:18:13.266Z,29.10
2019-03-29T17:20:40.020Z,29.10
2019-03-29T17:23:06.862Z,29.00
2019-03-29T17:25:33.567Z,29.00
2019-03-29T17:28:00.393Z,29.00
2019-03-29T17:30:27.187Z,29.00
2019-03-29T17:32:53.896Z,28.90
2019-03-29T17:35:20.680Z,28.90
2019-03-29T17:37:47.433Z,28.90
2019-03-29T17:40:14.159Z,28.80
2019-03-29T17:42:40.937Z,28.80
2019-03-29T17:45:07.660Z,28.70
2019-03-29T17:47:34.395Z,28.70
2019-03-29T17:50:01.594Z,28.60
2019-03-29T17:52:28.310Z,28.60
2019-03-29T17:54:55.058Z,28.50
2019-03-29T17:57:21.841Z,28.50
2019-03-29T17:59:48.664Z,28.40
2019-03-29T18:02:15.398Z,28.40
2019-03-29T18:04:42.253Z,28.40
2019-03-29T18:07:09.091Z,28.30
2019-03-29T18:09:35.819Z,28.20
2019-03-29T18:12:02.627Z,28.20
2019-03-29T18:14:29.428Z,28.20
2019-03-29T18:16:56.264Z,28.10
2019-03-29T18:19:23.102Z,28.10
2019-03-29T18:21:50.003Z,28.00
2019-03-29T18:24:16.694Z,28.00
2019-03-29T18:26:43.519Z,27.90
2019-03-29T18:29:10.236Z,27.90
2019-03-29T18:31:36.944Z,27.90
2019-03-29T18:34:03.736Z,27.80
2019-03-29T18:36:31.496Z,27.80
2019-03-29T18:38:59.421Z,27.70
2019-03-29T18:41:26.419Z,27.70
2019-03-29T18:43:53.331Z,27.70
2019-03-29T18:46:20.361Z,27.60
2019-03-29T18:48:47.281Z,27.60
2019-03-29T18:51:13.996Z,27.50
2019-03-29T18:53:40.764Z,27.50
2019-03-29T18:56:07.541Z,27.40
2019-03-29T18:58:34.323Z,27.40
2019-03-29T19:01:01.916Z,27.40
2019-03-29T19:03:29.220Z,27.30
2019-03-29T19:05:55.915Z,27.30
2019-03-29T19:08:22.732Z,27.30
2019-03-29T19:10:49.823Z,27.30
2019-03-29T19:13:16.706Z,27.20
2019-03-29T19:15:43.677Z,27.20
2019-03-29T19:18:10.758Z,27.20
2019-03-29T19:20:37.650Z,27.20
2019-03-29T19:23:04.343Z,27.10
2019-03-29T19:25:31.654Z,27.10
2019-03-29T19:27:58.919Z,27.10
2019-03-29T19:30:25.770Z,27.00
2019-03-29T19:32:52.629Z,27.00
2019-03-29T19:35:19.337Z,27.00
2019-03-29T19:37:46.069Z,27.00
2019-03-29T19:40:13.119Z,26.90
2019-03-29T19:42:39.887Z,26.90
2019-03-29T19:45:06.584Z,26.80
2019-03-29T19:47:33.338Z,26.80
2019-03-29T19:50:00.111Z,26.80
2019-03-29T19:52:27.113Z,26.70
2019-03-29T19:54:53.869Z,26.70
2019-03-29T19:57:20.581Z,26.70
2019-03-29T19:59:48.340Z,26.70
2019-03-29T20:02:15.693Z,26.60
2019-03-29T20:04:42.876Z,26.60
2019-03-29T20:07:09.581Z,26.50
2019-03-29T20:09:37.060Z,26.50
2019-03-29T20:12:03.872Z,26.50
2019-03-29T20:14:30.721Z,26.40
2019-03-29T20:16:58.183Z,26.40
2019-03-29T20:19:24.895Z,26.40
2019-03-29T20:21:51.585Z,26.30
2019-03-29T20:24:18.311Z,26.30
2019-03-29T20:26:45.019Z,26.20
2019-03-29T20:29:11.722Z,26.20
2019-03-29T20:31:38.512Z,26.20
2019-03-29T20:34:05.242Z,26.10
2019-03-29T20:36:31.943Z,26.10
2019-03-29T20:38:58.704Z,26.10
2019-03-29T20:41:25.428Z,26.00
2019-03-29T20:43:52.167Z,26.00
2019-03-29T20:46:18.917Z,25.90
2019-03-29T20:48:45.682Z,25.80
2019-03-29T20:51:12.404Z,25.80
2019-03-29T20:53:39.744Z,25.70
2019-03-29T20:56:06.811Z,25.70
2019-03-29T20:58:33.506Z,25.70
2019-03-29T21:01:00.273Z,25.60
2019-03-29T21:03:27.049Z,25.60
2019-03-29T21:05:53.787Z,25.50
2019-03-29T21:08:20.549Z,25.50
2019-03-29T21:10:55.633Z,25.50
2019-03-29T21:13:15.648Z,25.50
2019-03-29T21:15:42.381Z,25.40
2019-03-29T21:18:09.081Z,25.40
2019-03-29T21:20:35.786Z,25.30
2019-03-29T21:23:02.563Z,25.30
2019-03-29T21:25:29.256Z,25.30
2019-03-29T21:27:55.911Z,25.20
2019-03-29T21:30:22.683Z,25.20
2019-03-29T21:32:49.371Z,25.20
2019-03-29T21:35:16.107Z,25.20
2019-03-29T21:37:42.895Z,25.20
2019-03-29T21:40:09.608Z,25.10
2019-03-29T21:42:36.337Z,25.10
2019-03-29T21:45:03.090Z,25.00
2019-03-29T21:47:29.812Z,25.00
2019-03-29T21:49:56.523Z,25.00
2019-03-29T21:52:23.323Z,25.00
2019-03-29T21:54:50.018Z,25.00
2019-03-29T21:57:16.760Z,24.90
2019-03-29T21:59:44.076Z,24.90
2019-03-29T22:02:10.769Z,24.90
2019-03-29T22:04:37.429Z,24.90
2019-03-29T22:07:04.226Z,24.80
2019-03-29T22:09:36.720Z,24.90
2019-03-29T22:11:59.290Z,24.80
2019-03-29T22:14:26.065Z,24.80
2019-03-29T22:16:52.794Z,24.70
2019-03-29T22:19:19.523Z,24.70
2019-03-29T22:21:46.293Z,24.70
2019-03-29T22:24:13.050Z,24.70
2019-03-29T22:26:39.784Z,24.70
2019-03-29T22:29:06.577Z,24.60
2019-03-29T22:31:33.320Z,24.60
2019-03-29T22:34:00.033Z,24.60
2019-03-29T22:36:26.801Z,24.60
2019-03-29T22:38:53.531Z,24.50
2019-03-29T22:41:20.384Z,24.50
2019-03-29T22:43:47.176Z,24.50
2019-03-29T22:46:13.936Z,24.40
2019-03-29T22:48:51.662Z,24.40
2019-03-29T22:51:09.055Z,24.40
2019-03-29T22:53:35.776Z,24.30
2019-03-29T22:56:02.515Z,24.30
2019-03-29T22:58:29.307Z,24.30
2019-03-29T23:00:56.035Z,24.30
2019-03-29T23:03:22.761Z,24.30
2019-03-29T23:05:49.549Z,24.20
2019-03-29T23:08:16.222Z,24.20
2019-03-29T23:10:42.821Z,24.20
2019-03-29T23:13:09.925Z,24.10
2019-03-29T23:15:36.523Z,24.10
2019-03-29T23:18:03.116Z,24.10
2019-03-29T23:20:29.772Z,24.10
2019-03-29T23:22:56.367Z,24.00
2019-03-29T23:25:22.969Z,24.00
2019-03-29T23:27:49.670Z,24.00
2019-03-29T23:30:16.365Z,24.00
2019-03-29T23:32:43.089Z,24.00
2019-03-29T23:35:10.097Z,24.00
2019-03-29T23:37:36.767Z,23.90
2019-03-29T23:40:03.443Z,23.90
2019-03-29T23:42:30.280Z,23.90
2019-03-29T23:44:56.882Z,23.90
2019-03-29T23:47:23.543Z,23.90
2019-03-29T23:49:50.253Z,23.80
2019-03-29T23:52:16.887Z,23.80
2019-03-29T23:54:43.488Z,23.80
2019-03-29T23:57:10.126Z,23.70
2019-03-29T23:59:36.728Z,23.70
